Howes Cave, New York
Current Conditions -  °F | °C
As of 12:35 PM on Wednesday 26 Nov 2014 (Local Time) from KNY0 Reporting Station
Overcast Overcast  
Wind Chill: 22°   Ceiling: 500
Heat Index: 29°   Visibility: 0.5mi
Dew Point: 28°   Wind: 7mph
Humidity: 96%   Direction: 30°NNE
Pressure: 30.08"   Gusts: NA
Location:  42.69°N, 74.38°W
Report Text: KNY0 261735Z AUTO 03006KT 1/2SM BKN005 OVC010 M01/M02 A3008 RMK AO2 P0002 T10151020
Loading
Personal Weather Stations






























Interactive Weather Map New forecast layout! Learn more

10-Day Weather Forecast

Advertisements
Track Severe Weather on mobile